createdAt,value
2022-12-03T00:02:01.592Z,2.80
2022-12-03T00:04:28.264Z,2.80
2022-12-03T00:06:54.913Z,2.80
2022-12-03T00:09:21.554Z,2.70
2022-12-03T00:11:48.234Z,2.70
2022-12-03T00:14:14.908Z,2.70
2022-12-03T00:16:41.561Z,2.70
2022-12-03T00:19:08.199Z,2.80
2022-12-03T00:21:35.224Z,2.70
2022-12-03T00:24:01.960Z,2.80
2022-12-03T00:26:28.647Z,2.80
2022-12-03T00:28:55.301Z,2.80
2022-12-03T00:31:23.446Z,2.80
2022-12-03T00:33:53.228Z,2.80
2022-12-03T00:36:20.383Z,2.80
2022-12-03T00:38:47.079Z,2.80
2022-12-03T00:41:13.671Z,2.80
2022-12-03T00:43:40.309Z,2.80
2022-12-03T00:46:07.053Z,2.90
2022-12-03T00:48:33.714Z,2.90
2022-12-03T00:51:00.373Z,2.90
2022-12-03T00:53:27.360Z,2.80
2022-12-03T00:55:54.083Z,2.90
2022-12-03T00:58:20.664Z,2.90
2022-12-03T01:00:47.498Z,2.90
2022-12-03T01:03:14.184Z,2.90
2022-12-03T01:05:40.803Z,2.90
2022-12-03T01:08:07.478Z,3.00
2022-12-03T01:10:34.272Z,3.00
2022-12-03T01:13:00.963Z,3.00
2022-12-03T01:15:27.589Z,3.00
2022-12-03T01:17:54.359Z,3.00
2022-12-03T01:20:21.311Z,3.00
2022-12-03T01:22:47.926Z,3.00
2022-12-03T01:25:15.056Z,3.00
2022-12-03T01:27:41.908Z,3.10
2022-12-03T01:30:10.574Z,3.10
2022-12-03T01:32:37.409Z,3.10
2022-12-03T01:35:04.692Z,3.10
2022-12-03T01:37:31.468Z,3.00
2022-12-03T01:39:58.239Z,3.10
2022-12-03T01:42:28.724Z,3.10
2022-12-03T01:44:58.359Z,3.10
2022-12-03T01:47:30.134Z,3.10
2022-12-03T01:50:17.658Z,3.10
2022-12-03T01:52:44.990Z,3.10
2022-12-03T01:55:16.080Z,3.10
2022-12-03T01:57:50.237Z,3.10
2022-12-03T02:00:20.740Z,3.10
2022-12-03T02:02:56.644Z,3.10
2022-12-03T02:05:29.720Z,3.10
2022-12-03T02:07:56.966Z,3.10
2022-12-03T02:10:31.595Z,3.10
2022-12-03T02:13:08.587Z,3.10
2022-12-03T02:15:36.424Z,3.10
2022-12-03T02:18:03.169Z,3.00
2022-12-03T02:20:32.874Z,3.10
2022-12-03T02:23:17.222Z,3.10
2022-12-03T02:25:43.859Z,3.10
2022-12-03T02:28:10.751Z,3.00
2022-12-03T02:30:37.618Z,3.00
2022-12-03T02:33:04.545Z,2.60
2022-12-03T02:35:34.649Z,3.00
2022-12-03T02:38:22.989Z,3.00
2022-12-03T02:40:53.817Z,2.90
2022-12-03T02:43:20.969Z,2.90
2022-12-03T02:45:51.388Z,2.90
2022-12-03T02:48:19.476Z,2.90
2022-12-03T02:50:52.440Z,2.80
2022-12-03T02:53:28.885Z,2.80
2022-12-03T02:55:57.973Z,2.80
2022-12-03T02:58:27.087Z,2.80
2022-12-03T03:00:54.736Z,2.80
2022-12-03T03:03:24.472Z,2.80
2022-12-03T03:05:51.489Z,2.80
2022-12-03T03:08:19.232Z,2.80
2022-12-03T03:10:47.447Z,2.80
2022-12-03T03:13:18.562Z,2.80
2022-12-03T03:15:45.783Z,2.80
2022-12-03T03:18:14.064Z,2.80
2022-12-03T03:20:42.096Z,2.80
2022-12-03T03:23:11.488Z,2.90
2022-12-03T03:25:40.830Z,2.80
2022-12-03T03:28:07.955Z,2.80
2022-12-03T03:30:36.377Z,2.80
2022-12-03T03:33:03.281Z,2.80
2022-12-03T03:35:30.243Z,2.80
2022-12-03T03:37:58.551Z,2.80
2022-12-03T03:40:26.261Z,2.80
2022-12-03T03:42:53.066Z,2.80
2022-12-03T03:45:24.136Z,2.80
2022-12-03T03:47:56.689Z,2.80
2022-12-03T03:50:23.780Z,2.90
2022-12-03T03:52:50.664Z,2.80
2022-12-03T03:55:19.012Z,2.80
2022-12-03T03:57:46.112Z,2.80
2022-12-03T04:00:13.335Z,2.80
2022-12-03T04:02:40.821Z,2.80
2022-12-03T04:05:11.398Z,2.80
2022-12-03T04:07:38.085Z,2.80
2022-12-03T04:10:25.497Z,2.80
2022-12-03T04:12:57.952Z,2.70
2022-12-03T04:15:25.304Z,2.80
2022-12-03T04:18:11.014Z,2.80
2022-12-03T04:20:38.140Z,2.80
2022-12-03T04:23:05.745Z,2.80
2022-12-03T04:25:51.116Z,2.80
2022-12-03T04:28:36.432Z,2.70
2022-12-03T04:31:22.339Z,2.70
2022-12-03T04:34:15.088Z,2.70
2022-12-03T04:36:41.742Z,2.70
2022-12-03T04:39:08.373Z,2.70
2022-12-03T04:41:35.005Z,2.70
2022-12-03T04:44:20.327Z,2.70
2022-12-03T04:46:46.913Z,2.60
2022-12-03T04:49:13.537Z,2.60
2022-12-03T04:51:40.152Z,2.60
2022-12-03T04:54:07.031Z,2.60
2022-12-03T04:56:33.768Z,2.70
2022-12-03T04:59:00.451Z,2.60
2022-12-03T05:01:27.143Z,2.60
2022-12-03T05:03:53.776Z,2.60
2022-12-03T05:06:20.374Z,2.60
2022-12-03T05:08:47.157Z,2.60
2022-12-03T05:11:13.947Z,2.60
2022-12-03T05:13:42.527Z,2.60
2022-12-03T05:16:24.872Z,2.70
2022-12-03T05:18:51.541Z,2.70
2022-12-03T05:21:18.188Z,2.70
2022-12-03T05:23:44.912Z,2.70
2022-12-03T05:26:11.890Z,2.60
2022-12-03T05:28:38.535Z,2.70
2022-12-03T05:31:05.287Z,2.70
2022-12-03T05:33:32.530Z,2.70
2022-12-03T05:35:59.301Z,2.70
2022-12-03T05:38:25.976Z,2.70
2022-12-03T05:40:52.786Z,2.70
2022-12-03T05:43:19.571Z,2.60
2022-12-03T05:45:46.299Z,2.70
2022-12-03T05:48:15.064Z,2.60
2022-12-03T05:50:44.367Z,2.60
2022-12-03T05:53:11.663Z,2.60
2022-12-03T05:55:38.608Z,2.50
2022-12-03T05:58:05.643Z,2.50
2022-12-03T06:00:42.504Z,2.50
2022-12-03T06:03:09.996Z,2.50
2022-12-03T06:05:36.745Z,2.50
2022-12-03T06:08:03.534Z,2.50
2022-12-03T06:10:30.564Z,2.50
2022-12-03T06:12:57.302Z,2.40
2022-12-03T06:15:24.158Z,2.50
2022-12-03T06:17:50.793Z,2.40
2022-12-03T06:20:19.886Z,2.40
2022-12-03T06:22:47.847Z,2.40
2022-12-03T06:25:15.364Z,2.40
2022-12-03T06:27:42.121Z,2.40
2022-12-03T06:30:10.517Z,2.40
2022-12-03T06:32:37.212Z,2.30
2022-12-03T06:35:03.985Z,2.40
2022-12-03T06:37:30.651Z,2.40
2022-12-03T06:39:57.304Z,2.30
2022-12-03T06:42:23.997Z,2.40
2022-12-03T06:44:50.880Z,2.30
2022-12-03T06:47:17.752Z,2.30
2022-12-03T06:49:44.441Z,2.30
2022-12-03T06:52:11.027Z,2.30
2022-12-03T06:54:37.788Z,2.30
2022-12-03T06:57:04.432Z,2.20
2022-12-03T06:59:34.083Z,2.20
2022-12-03T07:02:01.069Z,2.20
2022-12-03T07:04:27.944Z,2.10
2022-12-03T07:06:54.602Z,2.10
2022-12-03T07:09:21.255Z,2.00
2022-12-03T07:11:47.943Z,2.10
2022-12-03T07:14:14.748Z,2.10
2022-12-03T07:16:43.425Z,2.10
2022-12-03T07:19:11.041Z,2.10
2022-12-03T07:21:37.875Z,2.10
2022-12-03T07:24:05.550Z,2.00
2022-12-03T07:26:32.852Z,2.00
2022-12-03T07:28:59.593Z,2.00
2022-12-03T07:31:26.571Z,1.90
2022-12-03T07:33:53.328Z,2.00
2022-12-03T07:36:20.448Z,2.00
2022-12-03T07:38:47.075Z,1.90
2022-12-03T07:41:13.843Z,1.90
2022-12-03T07:43:40.517Z,1.90
2022-12-03T07:46:08.417Z,1.90
2022-12-03T07:48:35.200Z,1.90
2022-12-03T07:51:01.880Z,1.80
2022-12-03T07:53:28.530Z,1.80
2022-12-03T07:55:55.132Z,1.80
2022-12-03T07:58:21.743Z,1.90
2022-12-03T08:00:48.427Z,1.80
2022-12-03T08:03:15.096Z,1.80
2022-12-03T08:05:41.748Z,1.70
2022-12-03T08:08:08.403Z,3.20
2022-12-03T08:10:35.032Z,1.70
2022-12-03T08:13:04.953Z,1.60
2022-12-03T08:15:38.515Z,1.70
2022-12-03T08:18:13.905Z,1.60
2022-12-03T08:20:42.991Z,1.70
2022-12-03T08:23:18.698Z,1.60
2022-12-03T08:25:45.513Z,1.60
2022-12-03T08:28:19.024Z,1.60
2022-12-03T08:31:05.567Z,1.70
2022-12-03T08:33:36.844Z,1.60
2022-12-03T08:36:13.599Z,1.60
2022-12-03T08:38:40.399Z,1.60
2022-12-03T08:41:15.227Z,1.70
2022-12-03T08:43:43.715Z,1.70
2022-12-03T08:46:18.865Z,1.70
2022-12-03T08:48:49.010Z,1.70
2022-12-03T08:51:21.414Z,1.70
2022-12-03T08:53:50.866Z,1.70
2022-12-03T08:56:23.614Z,1.70
2022-12-03T08:58:58.940Z,1.70
2022-12-03T09:01:30.634Z,1.70
2022-12-03T09:04:04.878Z,1.70
2022-12-03T09:06:31.574Z,1.70
2022-12-03T09:09:01.218Z,1.80
2022-12-03T09:11:31.850Z,1.80
2022-12-03T09:13:58.484Z,1.80
2022-12-03T09:16:25.139Z,1.80
2022-12-03T09:18:51.797Z,1.80
2022-12-03T09:21:18.499Z,1.70
2022-12-03T09:23:45.094Z,1.80
2022-12-03T09:26:11.689Z,1.80
2022-12-03T09:28:38.363Z,1.80
2022-12-03T09:31:05.198Z,1.80
2022-12-03T09:33:32.484Z,1.80
2022-12-03T09:35:59.740Z,1.80
2022-12-03T09:38:26.541Z,1.90
2022-12-03T09:40:54.112Z,1.90
2022-12-03T09:43:20.908Z,2.00
2022-12-03T09:45:49.042Z,2.00
2022-12-03T09:48:18.689Z,2.00
2022-12-03T09:50:46.137Z,2.10
2022-12-03T09:53:17.087Z,2.10
2022-12-03T09:55:45.411Z,2.10
2022-12-03T09:58:14.415Z,2.10
2022-12-03T10:00:43.616Z,2.20
2022-12-03T10:03:13.886Z,2.20
2022-12-03T10:05:45.093Z,2.20
2022-12-03T10:08:20.594Z,2.20
2022-12-03T10:10:50.343Z,2.20
2022-12-03T10:13:30.132Z,2.10
2022-12-03T10:15:58.944Z,2.20
2022-12-03T10:18:30.708Z,2.20
2022-12-03T10:20:57.866Z,2.30
2022-12-03T10:23:27.593Z,2.30
2022-12-03T10:25:59.379Z,2.30
2022-12-03T10:28:37.652Z,2.40
2022-12-03T10:31:08.869Z,2.40
2022-12-03T10:33:41.750Z,2.50
2022-12-03T10:36:26.354Z,2.50
2022-12-03T10:39:14.405Z,2.60
2022-12-03T10:41:43.556Z,2.70
2022-12-03T10:44:20.274Z,2.70
2022-12-03T10:47:09.763Z,2.70
2022-12-03T10:49:37.008Z,2.60
2022-12-03T10:52:03.848Z,2.50
2022-12-03T10:54:32.779Z,2.50
2022-12-03T10:57:00.035Z,2.40
2022-12-03T10:59:31.561Z,2.40
2022-12-03T11:01:58.396Z,2.40
2022-12-03T11:04:33.741Z,2.50
2022-12-03T11:07:03.187Z,2.50
2022-12-03T11:09:34.266Z,2.50
2022-12-03T11:12:06.048Z,2.50
2022-12-03T11:14:54.522Z,2.50
2022-12-03T11:17:50.335Z,2.40
2022-12-03T11:20:25.923Z,2.40
2022-12-03T11:22:55.771Z,2.30
2022-12-03T11:25:25.622Z,2.20
2022-12-03T11:28:13.650Z,2.10
2022-12-03T11:30:53.222Z,2.10
2022-12-03T11:33:26.464Z,2.10
2022-12-03T11:36:05.511Z,2.00
2022-12-03T11:38:38.287Z,2.00
2022-12-03T11:41:17.622Z,2.00
2022-12-03T11:43:53.604Z,1.90
2022-12-03T11:46:21.356Z,1.90
2022-12-03T11:48:50.380Z,1.90
2022-12-03T11:51:19.612Z,1.90
2022-12-03T11:53:47.081Z,1.90
2022-12-03T11:56:20.167Z,2.00
2022-12-03T11:58:47.687Z,2.00
2022-12-03T12:01:15.624Z,2.10
2022-12-03T12:03:47.812Z,2.10
2022-12-03T12:06:21.624Z,2.20
2022-12-03T12:08:50.989Z,2.20
2022-12-03T12:11:41.340Z,2.10
2022-12-03T12:14:10.796Z,2.20
2022-12-03T12:16:52.053Z,2.20
2022-12-03T12:19:41.283Z,2.20
2022-12-03T12:22:24.909Z,2.20
2022-12-03T12:25:00.343Z,2.10
2022-12-03T12:27:49.258Z,2.10
2022-12-03T12:30:22.159Z,2.00
2022-12-03T12:32:52.947Z,2.00
2022-12-03T12:35:24.032Z,2.00
2022-12-03T12:37:59.850Z,2.00
2022-12-03T12:40:29.893Z,2.00
2022-12-03T12:43:02.188Z,2.20
2022-12-03T12:45:35.535Z,2.00
2022-12-03T12:48:22.079Z,2.00
2022-12-03T12:50:53.564Z,2.00
2022-12-03T12:53:24.987Z,2.00
2022-12-03T12:56:00.735Z,2.00
2022-12-03T12:58:30.167Z,2.00
2022-12-03T13:00:59.096Z,1.80
2022-12-03T13:03:33.470Z,1.80
2022-12-03T13:06:02.158Z,1.80
2022-12-03T13:08:33.533Z,1.90
2022-12-03T13:11:01.815Z,1.80
2022-12-03T13:13:44.442Z,1.80
2022-12-03T13:16:31.553Z,1.90
2022-12-03T13:19:00.301Z,1.80
2022-12-03T13:21:41.853Z,1.80
2022-12-03T13:24:40.923Z,1.80
2022-12-03T13:27:19.825Z,1.80
2022-12-03T13:29:53.240Z,1.70
2022-12-03T13:32:27.515Z,1.70
2022-12-03T13:35:04.567Z,1.70
2022-12-03T13:37:31.774Z,1.70
2022-12-03T13:40:16.882Z,1.70
2022-12-03T13:42:45.937Z,1.70
2022-12-03T13:45:15.381Z,1.70
2022-12-03T13:47:46.054Z,1.70
2022-12-03T13:50:21.667Z,1.80
2022-12-03T13:52:49.107Z,1.80
2022-12-03T13:55:25.415Z,1.80
2022-12-03T13:57:52.449Z,1.70
2022-12-03T14:00:19.281Z,1.60
2022-12-03T14:02:46.037Z,1.60
2022-12-03T14:05:12.760Z,1.60
2022-12-03T14:07:39.478Z,1.60
2022-12-03T14:10:08.029Z,1.60
2022-12-03T14:12:34.959Z,1.50
2022-12-03T14:15:02.230Z,1.50
2022-12-03T14:17:31.024Z,1.50
2022-12-03T14:20:00.948Z,1.50
2022-12-03T14:22:27.921Z,1.50
2022-12-03T14:24:54.884Z,1.50
2022-12-03T14:27:22.322Z,1.50
2022-12-03T14:29:48.933Z,1.50
2022-12-03T14:32:15.774Z,1.50
2022-12-03T14:34:42.633Z,1.50
2022-12-03T14:37:09.289Z,1.40
2022-12-03T14:39:37.034Z,1.50
2022-12-03T14:42:16.468Z,1.50
2022-12-03T14:44:45.799Z,1.50
2022-12-03T14:47:14.826Z,1.50
2022-12-03T14:49:41.608Z,1.50
2022-12-03T14:52:11.963Z,1.50
2022-12-03T14:54:41.695Z,1.50
2022-12-03T14:57:09.010Z,1.50
2022-12-03T14:59:35.664Z,1.50
2022-12-03T15:02:02.435Z,1.50
2022-12-03T15:04:29.190Z,1.50
2022-12-03T15:06:55.906Z,1.40
2022-12-03T15:09:22.590Z,1.40
2022-12-03T15:11:49.236Z,1.50
2022-12-03T15:14:15.856Z,1.50
2022-12-03T15:16:42.482Z,1.50
2022-12-03T15:19:09.387Z,1.40
2022-12-03T15:21:36.225Z,1.40
2022-12-03T15:24:03.403Z,1.40
2022-12-03T15:26:30.323Z,1.50
2022-12-03T15:28:56.983Z,1.40
2022-12-03T15:31:23.723Z,1.50
2022-12-03T15:33:50.465Z,1.50
2022-12-03T15:36:17.127Z,1.40
2022-12-03T15:38:43.791Z,1.50
2022-12-03T15:41:29.342Z,1.40
2022-12-03T15:44:03.864Z,1.40
2022-12-03T15:46:31.466Z,1.40
2022-12-03T15:48:58.394Z,1.40
2022-12-03T15:51:27.619Z,1.50
2022-12-03T15:53:54.249Z,1.50
2022-12-03T15:56:20.949Z,1.50
2022-12-03T15:58:47.578Z,1.50
2022-12-03T16:01:14.535Z,1.50
2022-12-03T16:03:41.735Z,1.50
2022-12-03T16:06:08.480Z,1.40
2022-12-03T16:08:35.097Z,1.40
2022-12-03T16:11:01.832Z,1.50
2022-12-03T16:13:28.496Z,1.40
2022-12-03T16:15:55.200Z,1.50
2022-12-03T16:18:21.889Z,1.50
2022-12-03T16:20:48.696Z,1.40
2022-12-03T16:23:15.359Z,1.50
2022-12-03T16:25:42.043Z,1.50
2022-12-03T16:28:08.697Z,1.60
2022-12-03T16:30:36.062Z,1.50
2022-12-03T16:33:02.730Z,1.50
2022-12-03T16:35:29.451Z,1.50
2022-12-03T16:37:56.037Z,1.40
2022-12-03T16:40:22.720Z,1.40
2022-12-03T16:42:49.380Z,1.30
2022-12-03T16:45:33.006Z,1.30
2022-12-03T16:48:01.243Z,1.30
2022-12-03T16:50:30.113Z,1.30
2022-12-03T16:52:57.574Z,1.30
2022-12-03T16:55:24.344Z,1.30
2022-12-03T16:57:50.968Z,2.00
2022-12-03T17:00:17.869Z,1.20
2022-12-03T17:02:44.570Z,1.20
2022-12-03T17:05:11.489Z,1.80
2022-12-03T17:07:38.227Z,1.20
2022-12-03T17:10:05.689Z,1.20
2022-12-03T17:12:54.095Z,1.10
2022-12-03T17:15:19.012Z,1.10
2022-12-03T17:17:45.604Z,1.10
2022-12-03T17:20:14.486Z,1.10
2022-12-03T17:22:41.688Z,1.10
2022-12-03T17:25:08.954Z,1.10
2022-12-03T17:27:37.028Z,1.10
2022-12-03T17:30:06.034Z,1.10
2022-12-03T17:32:32.710Z,1.10
2022-12-03T17:34:59.548Z,1.10
2022-12-03T17:37:26.256Z,1.10
2022-12-03T17:39:53.124Z,1.10
2022-12-03T17:42:19.864Z,1.10
2022-12-03T17:44:46.542Z,1.20
2022-12-03T17:47:13.157Z,1.20
2022-12-03T17:49:39.799Z,1.20
2022-12-03T17:52:06.439Z,1.20
2022-12-03T17:54:55.153Z,1.20
2022-12-03T17:57:19.743Z,1.20
2022-12-03T17:59:46.360Z,1.20
2022-12-03T18:02:13.148Z,1.20
2022-12-03T18:04:39.868Z,1.20
2022-12-03T18:07:06.504Z,1.20
2022-12-03T18:09:33.103Z,1.20
2022-12-03T18:11:59.785Z,1.10
2022-12-03T18:14:26.429Z,1.00
2022-12-03T18:16:53.097Z,1.00
2022-12-03T18:19:19.708Z,1.00
2022-12-03T18:21:46.391Z,1.00
2022-12-03T18:24:13.176Z,1.00
2022-12-03T18:26:39.965Z,0.90
2022-12-03T18:29:06.633Z,1.00
2022-12-03T18:31:33.407Z,0.90
2022-12-03T18:34:00.731Z,0.90
2022-12-03T18:36:32.781Z,0.90
2022-12-03T18:39:01.029Z,0.90
2022-12-03T18:41:27.815Z,0.90
2022-12-03T18:43:55.131Z,0.90
2022-12-03T18:49:10.238Z,0.90
2022-12-03T18:51:37.308Z,0.90
2022-12-03T18:54:04.603Z,0.90
2022-12-03T18:56:31.253Z,0.90
2022-12-03T18:58:57.868Z,1.00
2022-12-03T19:01:24.596Z,1.00
2022-12-03T19:03:53.853Z,1.00
2022-12-03T19:06:21.348Z,1.00
2022-12-03T19:08:49.476Z,1.00
2022-12-03T19:11:16.185Z,1.00
2022-12-03T19:13:43.180Z,1.00
2022-12-03T19:16:12.193Z,1.00
2022-12-03T19:18:39.136Z,1.00
2022-12-03T19:21:10.860Z,1.00
2022-12-03T19:23:38.331Z,0.90
2022-12-03T19:26:07.257Z,0.90
2022-12-03T19:28:34.311Z,0.90
2022-12-03T19:31:13.193Z,0.80
2022-12-03T19:33:42.305Z,0.80
2022-12-03T19:36:19.975Z,0.80
2022-12-03T19:38:52.179Z,0.80
2022-12-03T19:41:26.532Z,0.80
2022-12-03T19:43:55.297Z,0.80
2022-12-03T19:46:23.735Z,0.80
2022-12-03T19:48:50.791Z,0.80
2022-12-03T19:51:33.603Z,0.90
2022-12-03T19:54:01.224Z,0.90
2022-12-03T19:56:30.209Z,0.80
2022-12-03T19:58:57.366Z,0.80
2022-12-03T20:01:26.811Z,0.80
2022-12-03T20:03:56.226Z,0.80
2022-12-03T20:06:25.507Z,0.80
2022-12-03T20:09:04.286Z,0.80
2022-12-03T20:11:33.384Z,0.80
2022-12-03T20:14:02.705Z,0.90
2022-12-03T20:16:29.931Z,0.90
2022-12-03T20:19:04.972Z,0.90
2022-12-03T20:21:33.851Z,0.90
2022-12-03T20:24:00.550Z,0.90
2022-12-03T20:26:27.828Z,0.90
2022-12-03T20:28:55.435Z,0.90
2022-12-03T20:31:25.723Z,0.80
2022-12-03T20:33:54.992Z,0.80
2022-12-03T20:36:25.102Z,0.80
2022-12-03T20:38:59.936Z,0.80
2022-12-03T20:41:27.144Z,0.80
2022-12-03T20:43:54.314Z,0.80
2022-12-03T20:46:29.537Z,0.70
2022-12-03T20:48:57.076Z,0.70
2022-12-03T20:51:26.328Z,0.80
2022-12-03T20:53:53.256Z,0.70
2022-12-03T20:56:23.736Z,0.70
2022-12-03T20:58:50.707Z,0.70
2022-12-03T21:01:23.714Z,0.70
2022-12-03T21:03:51.922Z,0.80
2022-12-03T21:06:19.273Z,0.70
2022-12-03T21:08:46.377Z,0.80
2022-12-03T21:11:16.699Z,0.80
2022-12-03T21:13:44.407Z,0.80
2022-12-03T21:16:29.845Z,0.80
2022-12-03T21:19:07.158Z,0.70
2022-12-03T21:21:35.096Z,0.70
2022-12-03T21:24:01.692Z,0.70
2022-12-03T21:26:28.410Z,0.70
2022-12-03T21:28:55.103Z,0.70
2022-12-03T21:31:25.133Z,0.60
2022-12-03T21:33:56.223Z,0.60
2022-12-03T21:36:23.605Z,0.60
2022-12-03T21:38:52.069Z,0.60
2022-12-03T21:41:18.871Z,0.60
2022-12-03T21:43:45.677Z,0.60
2022-12-03T21:47:11.220Z,0.60
2022-12-03T21:49:03.852Z,1.40
2022-12-03T21:51:30.640Z,0.60
2022-12-03T21:53:57.268Z,0.60
2022-12-03T21:56:23.903Z,0.60
2022-12-03T21:58:50.584Z,0.60
2022-12-03T22:01:24.542Z,0.60
2022-12-03T22:03:51.841Z,0.60
2022-12-03T22:06:19.371Z,0.80
2022-12-03T22:08:46.156Z,0.60
2022-12-03T22:11:18.948Z,0.60
2022-12-03T22:13:45.994Z,0.60
2022-12-03T22:16:15.515Z,0.60
2022-12-03T22:18:42.427Z,0.50
2022-12-03T22:21:12.637Z,0.50
2022-12-03T22:23:39.787Z,0.60
2022-12-03T22:26:08.603Z,0.60
2022-12-03T22:28:35.341Z,0.60
2022-12-03T22:31:06.654Z,0.60
2022-12-03T22:33:33.433Z,1.10
2022-12-03T22:36:02.815Z,0.60
2022-12-03T22:38:30.911Z,0.60
2022-12-03T22:40:59.314Z,0.60
2022-12-03T22:43:26.000Z,0.60
2022-12-03T22:45:54.723Z,0.50
2022-12-03T22:48:22.295Z,0.60
2022-12-03T22:50:50.802Z,0.60
2022-12-03T22:53:17.902Z,0.60
2022-12-03T22:55:44.515Z,0.50
2022-12-03T22:58:11.721Z,0.50
2022-12-03T23:00:41.064Z,0.50
2022-12-03T23:03:08.806Z,0.50
2022-12-03T23:05:38.484Z,0.50
2022-12-03T23:08:07.395Z,0.50
2022-12-03T23:10:38.939Z,0.50
2022-12-03T23:13:06.010Z,0.50
2022-12-03T23:15:32.711Z,0.50
2022-12-03T23:18:00.041Z,0.50
2022-12-03T23:20:27.910Z,0.50
2022-12-03T23:22:55.006Z,0.50
2022-12-03T23:25:22.213Z,0.50
2022-12-03T23:27:49.076Z,0.50
2022-12-03T23:30:16.491Z,0.50
2022-12-03T23:32:44.348Z,0.50
2022-12-03T23:35:13.158Z,0.50
2022-12-03T23:37:44.517Z,0.60
2022-12-03T23:40:12.273Z,0.60
2022-12-03T23:42:38.913Z,-0.30
2022-12-03T23:45:06.010Z,0.50
2022-12-03T23:47:32.625Z,0.60
2022-12-03T23:49:59.308Z,0.50
2022-12-03T23:52:25.995Z,0.60
2022-12-03T23:54:52.678Z,0.60
2022-12-03T23:57:19.404Z,0.60
2022-12-03T23:59:46.035Z,0.60
